x

8447387 - Borden Flats Light At Fall River, Ma (bltm3) Weather Station

10:54 - Mon 25th Sep 2017 All times are EDT. -4 hours from GMT.

  • Wind
    3mph, 5mph gusts
  • Luft Temp 69°f
  • Sea Pressure 1016.8mb
  • 8447387 - Borden Flats Light At Fall River, Ma
  • 8447387 - Borden Flats Light At Fall River, Ma

More Historic Weather Station data

Upgrade to MSW Pro to gain access to the past 30 days of data for over 8000 Wavebouys and Weather Stations around the globe.

Join

Comparision Forecast

View Surf forecast
   
Mo 09/25 10:54 3 5 mph 1016.8mb 69f
10:48 5 5 mph 1016.9mb 69f
10:42 3 5 mph 1016.9mb 69f
10:36 1 2 mph 1016.9mb 69f
10:30 2 2 mph 1016.9mb 69f
10:24 1 2 mph 1017mb 69f
10:18 3 3 mph 1017.1mb 69f
10:12 5 5 mph 1017.1mb 69f
10:06 5 6 mph 1017.1mb 69f
10:00 5 5 mph 1017.2mb 69f
9:54 3 5 mph 1017.3mb 69f
9:48 5 6 mph 1017.3mb 70f
9:42 3 5 mph 1017.3mb 70f
9:36  -  2 mph 1017.3mb 70f
9:30 2 3 mph 1017.3mb 70f
9:24 3 5 mph 1017.3mb 70f
9:18 2 3 mph 1017.2mb 70f
9:12 2 3 mph 1017.3mb 70f
9:06  -  1 mph 1017.3mb 70f
9:00  -  2 mph 1017.2mb 70f
8:48  -  2 mph 1017.1mb 70f
8:42 2 2 mph 1017.1mb 70f
8:36 2 3 mph 1017.1mb 70f
8:30 3 6 mph 1017.1mb 70f
8:24 5 6 mph 1017.1mb 70f
8:18 6 6 mph 1017mb 70f
8:12 5 7 mph 1017mb 70f
8:06 5 5 mph 1016.9mb 70f
8:00 5 6 mph 1016.9mb 71f
7:54 3 5 mph 1016.8mb 71f
7:48 2 3 mph - -
7:42 2 3 mph - -
7:36  -  1 mph - -
7:30 1 2 mph 1016.8mb 72f
7:24 6 8 mph 1016.7mb 72f
7:18 7 9 mph 1016.6mb 72f
7:12 6 8 mph 1016.5mb 72f
7:06 6 9 mph 1016.5mb 72f
7:00 8 11 mph 1016.5mb 73f
6:54 10 15 mph 1016.5mb 73f
6:48 11 16 mph 1016.5mb 73f
6:42 10 14 mph 1016.5mb 73f
6:36 10 14 mph 1016.5mb 74f
6:30 9 11 mph 1016.5mb 74f
6:24 10 13 mph 1016.5mb 74f
6:18 10 14 mph 1016.5mb 75f
6:12 13 15 mph 1016.6mb 75f
6:06 13 15 mph 1016.6mb 75f
6:00 11 15 mph 1016.6mb 75f
5:54 11 16 mph 1016.6mb 76f
5:48 9 11 mph 1016.6mb 76f
5:42 10 13 mph 1016.5mb 76f
5:36 9 11 mph 1016.5mb 77f
5:30 9 11 mph 1016.5mb 77f
5:24 9 13 mph 1016.5mb 78f
5:18 7 10 mph 1016.5mb 78f
5:12 7 10 mph 1016.4mb 77f
5:06 2 3 mph 1016.3mb 74f
5:00 3 7 mph 1016.3mb 75f
4:54 6 7 mph 1016.4mb 74f
4:48 6 7 mph 1016.4mb 74f
4:42 7 9 mph 1016.3mb 74f
4:36 8 10 mph 1016.3mb 74f
4:30 9 10 mph 1016.3mb 75f
4:24 11 13 mph 1016.2mb 75f
4:18 10 11 mph 1016.2mb 74f
4:12 9 9 mph 1016.2mb 74f
4:06 9 9 mph 1016.2mb 74f
4:00 9 9 mph 1016.3mb 75f
3:54 9 9 mph 1016.3mb 75f
3:48 8 8 mph 1016.4mb 74f
3:42 8 8 mph 1016.3mb 73f
3:36 8 8 mph 1016.4mb 73f
3:30 7 8 mph 1016.4mb 73f
3:24 7 8 mph 1016.4mb 73f
3:18 8 9 mph 1016.5mb 73f
3:12 9 9 mph 1016.6mb 72f
3:06 9 10 mph 1016.6mb 72f
3:00 8 10 mph 1016.7mb 72f
2:54 11 14 mph 1016.8mb 73f
2:48 14 15 mph 1016.8mb 72f
2:42 14 15 mph 1016.9mb 72f
2:36 14 14 mph 1016.9mb 72f
2:30 13 13 mph 1017mb 71f
2:24 13 14 mph 1016.9mb 71f
2:18 14 15 mph 1017mb 71f
2:12 15 16 mph 1017mb 71f
2:06 14 16 mph 1017.1mb 72f
2:00 13 14 mph 1017.1mb 71f
1:54 14 14 mph 1017.1mb 71f
1:48 14 14 mph 1017.1mb 72f
1:42 15 15 mph 1017.1mb 72f
1:36 14 15 mph 1017.1mb 72f
1:30 16 16 mph 1017.2mb 72f
1:24 15 16 mph 1017.3mb 72f
1:18 15 16 mph 1017.3mb 72f
1:12 16 16 mph 1017.3mb 73f
1:06 13 14 mph 1017.4mb 73f
1:00 14 14 mph 1017.4mb 73f
12:54 10 11 mph 1017.5mb 74f
12:48 10 10 mph 1017.5mb 75f
12:42 9 10 mph 1017.5mb 75f
12:36 9 10 mph 1017.5mb 74f
12:30 9 10 mph 1017.5mb 73f
12:24 9 10 mph 1017.5mb 73f
12:18 9 9 mph 1017.5mb 73f
12:12 8 8 mph 1017.5mb 73f
12:06 8 9 mph 1017.5mb 73f
12:00 8 8 mph 1017.5mb 73f
11:54 7 8 mph 1017.6mb 73f
11:48 7 7 mph 1017.5mb 73f
11:42 7 7 mph 1017.5mb 73f
11:36 6 7 mph 1017.5mb 73f
11:30 6 6 mph 1017.5mb 72f
11:24 6 6 mph 1017.5mb 72f
11:18 5 5 mph 1017.5mb 73f
11:12 5 5 mph 1017.5mb 72f
11:06 5 5 mph 1017.6mb 73f
11:00 5 5 mph 1017.6mb 72f
10:54 5 5 mph 1017.6mb 72f
10:48 5 5 mph 1017.7mb 72f
10:42 6 6 mph 1017.7mb 71f
10:36 5 5 mph 1017.8mb 71f
10:30 5 5 mph 1017.8mb 70f
10:24 5 6 mph 1017.8mb 70f
10:18 6 6 mph 1017.9mb 69f
10:12 6 7 mph 1018mb 69f
10:06 7 7 mph 1018mb 70f
10:00 6 6 mph 1018mb 70f
9:54 2 3 mph 1017.9mb 70f
9:48  -  0 mph 1017.9mb 72f
9:42  -  0 mph 1017.8mb 73f
9:36  -  0 mph 1017.9mb 73f
9:30  -  1 mph 1017.9mb 72f
9:24 1 1 mph 1017.9mb 72f
9:18 1 1 mph 1017.9mb 72f
9:12 2 2 mph 1017.8mb 71f
9:06 2 3 mph 1017.8mb 71f
9:00 2 2 mph 1017.7mb 70f
8:48 3 3 mph 1017.7mb 70f
8:42 3 3 mph 1017.7mb 69f
8:36 3 3 mph 1017.7mb 69f
8:30 3 3 mph 1017.6mb 69f
8:24 3 3 mph 1017.6mb 69f
8:18 2 2 mph 1017.6mb 68f
8:12 2 3 mph 1017.6mb 68f
8:06 3 5 mph 1017.5mb 68f
8:00 5 5 mph 1017.5mb 67f
7:54 5 6 mph 1017.5mb 67f
7:48 5 5 mph 1017.4mb 67f
7:42 5 5 mph 1017.5mb 67f
7:36 5 6 mph 1017.4mb 66f
7:30 6 6 mph 1017.4mb 66f
7:24 6 6 mph 1017.3mb 66f
7:18 6 6 mph 1017.3mb 66f
7:12 6 6 mph 1017.2mb 66f
7:06 6 6 mph 1017.2mb 66f
7:00 5 6 mph 1017.2mb 66f
6:54 5 5 mph 1017.2mb 66f
6:48 5 5 mph 1017.1mb 66f
6:42 5 5 mph 1017.1mb 66f
6:36 5 5 mph 1017mb 66f
6:30 3 3 mph 1017mb 66f
6:24 3 3 mph 1017mb 66f
6:18 2 2 mph 1016.9mb 66f
6:12 2 3 mph 1016.8mb 66f
6:06 2 2 mph 1016.8mb 66f
6:00 1 2 mph 1016.7mb 66f
5:54 1 2 mph 1016.6mb 66f
5:48 3 3 mph 1016.5mb 66f
5:42 3 3 mph 1016.4mb 66f
5:36 3 3 mph 1016.3mb 66f
5:30 2 2 mph 1016.2mb 66f
5:24 2 2 mph 1016.2mb 67f
5:18 2 2 mph 1016.2mb 67f
5:12 2 2 mph 1016.2mb 67f
5:06 2 2 mph 1016.2mb 67f
5:00  -  0 mph 1016.1mb 67f
4:54  -  0 mph 1016.2mb 67f
4:48  -  0 mph 1016.2mb 68f
4:42  -  0 mph 1016.1mb 68f
4:36  -  0 mph 1016.1mb 68f
4:30  -  0 mph 1016.2mb 68f
4:24  -  0 mph 1016.2mb 68f
4:18  -  0 mph 1016.1mb 69f
4:12  -  0 mph 1016.1mb 69f
4:06  -  0 mph 1016.1mb 69f
4:00  -  0 mph 1016.1mb 69f
3:54  -  0 mph 1016.1mb 69f
3:48  -  0 mph 1016.1mb 69f
3:42  -  1 mph 1016mb 69f
3:36  -  1 mph 1016mb 69f
3:30 1 2 mph 1016.1mb 69f
3:24 1 2 mph 1016mb 69f
3:18 1 2 mph 1016mb 69f
3:12 2 3 mph 1016.1mb 69f
3:06 3 3 mph 1016.2mb 69f
3:00 2 3 mph 1016.3mb 70f
2:54 2 3 mph 1016.3mb 70f
2:48 2 3 mph 1016.3mb 70f
2:42 5 6 mph 1016.2mb 70f
2:36 5 7 mph 1016.2mb 70f
2:30 5 6 mph 1016.3mb 70f
2:24 5 6 mph 1016.2mb 70f
2:18 5 7 mph 1016.3mb 70f
2:12 5 6 mph 1016.2mb 70f
2:06 6 7 mph 1016.2mb 70f
2:00 7 9 mph 1016.2mb 69f
1:54 6 7 mph 1016.3mb 68f
1:48 3 6 mph 1016.3mb 68f
1:42 3 5 mph 1016.3mb 68f
1:36 2 3 mph 1016.3mb 67f
1:30 2 3 mph 1016.4mb 67f
1:24  -  2 mph 1016.4mb 67f
1:18  -  0 mph 1016.4mb 67f
1:12  -  0 mph 1016.4mb 68f
1:06  -  0 mph 1016.4mb 68f
1:00  -  0 mph 1016.4mb 68f
12:54  -  0 mph 1016.5mb 68f
12:48  -  0 mph 1016.5mb 68f
12:42  -  0 mph 1016.5mb 68f
12:36  -  0 mph 1016.5mb 68f
12:30  -  0 mph 1016.5mb 68f
12:24  -  0 mph 1016.5mb 68f
12:18  -  0 mph 1016.5mb 68f
12:12  -  0 mph 1016.5mb 68f
12:06  -  0 mph 1016.5mb 68f
12:00  -  1 mph 1016.5mb 69f
So 09/24 11:54  -  1 mph 1016.5mb 69f
11:48  -  0 mph 1016.5mb 69f
11:42  -  0 mph 1016.6mb 69f
11:36  -  0 mph 1016.6mb 69f
11:30  -  0 mph 1016.6mb 69f
11:24  -  0 mph 1016.7mb 69f
11:18  -  0 mph 1016.7mb 69f
11:12  -  0 mph 1016.6mb 69f
11:06  -  1 mph 1016.7mb 69f
11:00  -  1 mph 1016.7mb 69f
10:54  -  1 mph 1016.7mb 69f
10:48  -  1 mph 1016.8mb 69f
10:42  -  0 mph 1016.8mb 69f
10:36  -  0 mph 1016.8mb 69f
10:30  -  0 mph 1016.7mb 69f
10:24  -  1 mph 1016.7mb 69f
10:18 1 1 mph 1016.7mb 69f
10:12 2 2 mph 1016.7mb 69f
10:06 2 2 mph 1016.7mb 69f
10:00 2 3 mph 1016.8mb 70f
9:54 2 3 mph 1016.8mb 70f
9:48 2 3 mph 1016.8mb 70f
9:42  -  0 mph 1016.7mb 70f
9:36  -  0 mph 1016.7mb 70f
9:30  -  3 mph 1016.6mb 69f
9:24  -  2 mph 1016.5mb 69f
9:18  -  1 mph 1016.6mb 69f
9:12 3 3 mph 1016.5mb 69f
9:06 5 5 mph 1016.5mb 69f
9:00 5 5 mph 1016.5mb 70f
8:54 6 6 mph 1016.6mb 70f
8:48 5 5 mph 1016.5mb 70f
8:42 3 3 mph 1016.5mb 70f
8:36 2 2 mph 1016.5mb 70f
8:30 2 3 mph 1016.4mb 71f
8:24 3 3 mph 1016.4mb 71f
8:18 2 3 mph 1016.5mb 72f
8:12 2 2 mph 1016.4mb 73f
8:06 2 3 mph 1016.4mb 73f
8:00 3 5 mph 1016.3mb 73f
7:54 2 3 mph 1016.2mb 73f
7:48 3 5 mph - -
7:42 5 5 mph - -
7:36 6 6 mph - -
7:30 7 8 mph 1016mb 72f
7:24 8 8 mph 1015.9mb 72f
7:18 8 9 mph 1015.8mb 72f
7:12 7 8 mph 1015.8mb 72f
7:06 7 8 mph 1015.7mb 72f
7:00 7 8 mph 1015.7mb 72f
6:54 9 9 mph 1015.6mb 71f
6:48 5 8 mph 1015.7mb 71f
6:42 9 10 mph 1015.6mb 72f
6:36 10 10 mph 1015.5mb 72f
6:30 9 10 mph 1015.6mb 72f
6:24 11 13 mph 1015.4mb 73f
6:18 10 11 mph 1015.4mb 72f
6:12 11 13 mph 1015.4mb 72f
6:06 13 14 mph 1015.5mb 73f
6:00 13 14 mph 1015.5mb 73f
5:54 14 15 mph 1015.4mb 73f
5:48 14 14 mph 1015.4mb 73f
5:42 14 14 mph 1015.4mb 73f
5:36 14 14 mph 1015.4mb 73f
5:30 14 14 mph 1015.4mb 73f
5:24 11 14 mph 1015.4mb 73f
5:18 14 15 mph 1015.3mb 74f
5:12 13 13 mph 1015.3mb 74f
5:06 11 13 mph 1015.3mb 74f
5:00 13 14 mph 1015.3mb 73f
4:54 11 13 mph 1015.4mb 74f
4:48 11 11 mph 1015.3mb 74f
4:42 10 11 mph 1015.3mb 74f
4:36 11 11 mph 1015.3mb 74f
4:30 11 11 mph 1015.3mb 75f
4:24 8 9 mph 1015.3mb 76f
4:18 8 9 mph 1015.3mb 77f
4:12 9 9 mph 1015.4mb 78f
4:06 9 10 mph 1015.5mb 77f
4:00 10 10 mph 1015.6mb 77f
3:54 10 10 mph 1015.6mb 77f
3:48 10 10 mph 1015.6mb 77f
3:42 10 10 mph 1015.6mb 76f
3:36 11 11 mph 1015.7mb 76f
3:30 11 11 mph 1015.8mb 76f
3:24 11 13 mph 1015.8mb 76f
3:18 13 13 mph 1015.9mb 76f
3:12 13 13 mph 1015.9mb 76f
3:06 13 14 mph 1015.9mb 76f
3:00 14 14 mph 1015.9mb 75f
2:54 13 14 mph 1015.9mb 75f
2:48 11 13 mph 1016mb 76f
2:42 11 13 mph 1016mb 76f
2:36 13 14 mph 1016mb 76f
2:30 13 13 mph 1016mb 75f
2:24 13 14 mph 1016mb 74f
2:18 13 14 mph 1016.1mb 74f
2:12 11 13 mph 1016.1mb 76f
2:06 8 8 mph 1016.2mb 76f
2:00 7 8 mph 1016.2mb 76f
1:54 7 7 mph 1016.1mb 76f
1:48 6 7 mph 1016.1mb 76f
1:42 3 5 mph 1016.2mb 78f
1:36 6 6 mph 1016.3mb 77f
1:30 5 6 mph 1016.3mb 77f
1:24 5 5 mph 1016.3mb 76f
1:18 5 6 mph 1016.4mb 74f
1:12 5 6 mph 1016.4mb 76f
1:06 6 6 mph 1016.3mb 75f
1:00 3 5 mph 1016.4mb 75f
12:54 2 3 mph 1016.3mb 75f
12:48 2 3 mph 1016.3mb 74f
12:42 2 3 mph 1016.3mb 73f
12:36 3 3 mph 1016.3mb 73f
12:30  -  1 mph 1016.5mb 73f
12:24  -  1 mph 1016.5mb 72f
12:18 2 3 mph 1016.5mb 73f
12:12 3 3 mph 1016.5mb 72f
12:06 2 3 mph 1016.6mb 72f
12:00 2 3 mph 1016.7mb 73f
11:54 3 5 mph 1016.6mb 72f
11:48  -  1 mph 1016.6mb 72f
11:42  -  1 mph 1016.6mb 72f
11:36 1 2 mph 1016.7mb 72f
11:30  -  0 mph 1016.7mb 72f
11:24  -  2 mph 1016.7mb 73f
11:18 2 3 mph 1016.7mb 74f
11:12 5 6 mph 1016.8mb 74f
11:06 3 5 mph 1016.8mb 74f
11:00 2 3 mph 1016.8mb 73f
10:54  -  2 mph 1016.8mb 72f
10:48  -  2 mph 1016.9mb 73f
10:42 2 3 mph 1017mb 71f
10:36 3 5 mph 1017.2mb 70f
10:30  -  2 mph 1017.2mb 69f
10:24  -  0 mph 1017.3mb 69f
10:18  -  0 mph 1017.2mb 69f
10:12  -  1 mph 1017.1mb 68f
10:06 2 2 mph 1017.1mb 67f
10:00 3 3 mph 1017.2mb 67f
9:54 3 5 mph 1017.2mb 66f
9:48 3 3 mph 1017.2mb 66f
9:42 3 3 mph 1017.2mb 66f
9:36 3 5 mph 1017.2mb 65f
9:30 3 3 mph 1017.3mb 65f
9:24 3 3 mph 1017.3mb 65f
9:18 3 3 mph 1017.3mb 65f
9:12  -  2 mph 1017.3mb 65f
9:06  -  0 mph 1017.3mb 65f
9:00  -  0 mph 1017.4mb 65f
8:54  -  1 mph 1017.4mb 64f
8:48  -  0 mph 1017.4mb 64f
8:42  -  0 mph 1017.3mb 64f
8:36  -  0 mph 1017.2mb 64f
8:30  -  0 mph 1017.2mb 64f
8:24  -  1 mph 1017.2mb 63f
8:18  -  0 mph 1017.2mb 63f
8:12  -  0 mph 1017.2mb 63f
8:06  -  0 mph 1017.2mb 63f
8:00  -  1 mph 1017.3mb 64f
7:54 2 2 mph 1017.4mb 64f
7:48  -  2 mph 1017.3mb 64f
7:42  -  1 mph 1017.2mb 64f
7:36  -  1 mph 1017.2mb 63f
7:30 1 2 mph 1017.2mb 63f
7:24 2 2 mph 1017.3mb 63f
7:18 1 2 mph 1017.2mb 63f
7:12 1 2 mph 1017.2mb 63f
7:06 2 2 mph 1017.2mb 62f
7:00 3 3 mph 1017.1mb 62f
6:54 3 3 mph 1017.1mb 62f
6:48 2 2 mph 1017.1mb 62f
6:42 2 2 mph 1017mb 62f
6:36 2 2 mph 1016.9mb 62f
6:30 1 2 mph 1016.9mb 62f
6:24 2 2 mph 1016.8mb 62f
6:18  -  0 mph 1016.7mb 62f
6:12  -  0 mph 1016.7mb 62f
6:06  -  0 mph 1016.6mb 62f
6:00  -  1 mph 1016.6mb 62f
5:54  -  1 mph 1016.6mb 62f
5:48 1 2 mph 1016.5mb 62f
5:42 1 2 mph 1016.5mb 62f
5:36 1 1 mph 1016.4mb 62f
5:30 1 2 mph 1016.4mb 62f
5:24 1 2 mph 1016.4mb 62f
5:18  -  1 mph 1016.4mb 62f
5:12 2 2 mph 1016.3mb 62f
5:06 2 3 mph 1016.3mb 62f
5:00 3 3 mph 1016.3mb 62f
4:54 3 3 mph 1016.2mb 62f
4:48 2 3 mph 1016.2mb 62f
4:42 2 2 mph 1016.2mb 62f
4:36 2 3 mph 1016.2mb 62f
4:30 3 3 mph 1016.1mb 62f
4:24 2 3 mph 1016.1mb 62f
4:18 2 3 mph 1016.1mb 62f
4:12 3 5 mph 1016.1mb 62f
4:06 3 5 mph 1016.1mb 62f
4:00 3 5 mph 1016.1mb 62f
3:54 3 3 mph 1015.9mb 62f
3:48 3 3 mph 1016mb 62f
3:42 3 5 mph 1016mb 62f
3:36 3 3 mph 1015.9mb 62f
3:30 5 5 mph 1015.8mb 62f
3:24 3 5 mph 1015.8mb 62f
3:18 1 2 mph 1015.8mb 62f
3:12  -  2 mph 1015.8mb 62f
3:06 2 3 mph 1015.8mb 62f
3:00 3 3 mph 1015.7mb 62f
2:54 3 5 mph 1015.6mb 62f
2:48 2 3 mph 1015.5mb 62f
2:42 3 5 mph 1015.4mb 62f
2:36 3 5 mph 1015.4mb 62f
2:30 3 5 mph 1015.5mb 63f
2:24 3 3 mph 1015.6mb 63f
2:18 3 3 mph 1015.7mb 63f
2:12 3 3 mph 1015.7mb 63f
2:06 3 5 mph 1015.7mb 63f
2:00 3 5 mph 1015.8mb 63f
1:54 3 3 mph 1015.9mb 63f
1:48 3 3 mph 1016mb 63f
1:42 2 3 mph 1016mb 63f
1:36 3 3 mph 1016mb 63f
1:30 2 3 mph 1016mb 63f
1:24 2 3 mph 1016mb 63f
1:18 2 3 mph 1016mb 63f
1:12 2 3 mph 1016mb 63f
1:06 3 3 mph 1016mb 63f
1:00 2 3 mph 1015.9mb 63f
12:54 1 2 mph 1015.9mb 63f
12:48 2 2 mph 1015.9mb 63f
12:42 2 2 mph 1015.9mb 63f
12:36 2 3 mph 1015.9mb 63f
12:30 2 2 mph 1016mb 63f
12:24 2 2 mph 1016mb 64f
12:18  -  1 mph 1016.1mb 64f
12:12  -  1 mph 1016.2mb 64f
12:06 1 2 mph 1016.3mb 64f
12:00  -  1 mph 1016.3mb 64f
Sa 09/23 11:54 1 2 mph 1016.2mb 64f
11:48 1 1 mph 1016.2mb 64f
11:42 2 2 mph 1016.2mb 64f
11:36 2 3 mph 1016.3mb 64f
11:30  -  1 mph 1016.3mb 64f
11:24 2 2 mph 1016.4mb 64f
11:18 3 5 mph 1016.3mb 64f
11:12 2 3 mph 1016.3mb 64f
11:06 3 5 mph 1016.3mb 64f
11:00 5 5 mph 1016.2mb 64f
10:54 5 6 mph 1016.2mb 64f
10:48 5 6 mph 1016.2mb 64f
10:42 5 6 mph 1016.2mb 65f
10:36 5 6 mph 1016.2mb 65f
10:30 5 6 mph 1016.2mb 65f
10:24 5 6 mph 1016.2mb 65f
10:18 6 6 mph 1016.1mb 65f
10:12 7 7 mph 1016.1mb 65f
10:06 6 7 mph 1016.1mb 66f
10:00 7 7 mph 1016.1mb 66f
9:54 7 8 mph 1016.2mb 66f
9:48 6 7 mph 1016.2mb 66f
9:42 5 6 mph 1016.2mb 67f
9:36 5 5 mph 1016.2mb 67f
9:30 3 5 mph 1016.2mb 67f
9:24 3 5 mph 1016.3mb 67f
9:18 5 6 mph 1016.3mb 67f
9:12 5 6 mph 1016.2mb 67f
9:06 6 6 mph 1016.2mb 67f
9:00 6 6 mph 1016.1mb 67f
8:54 5 6 mph 1015.9mb 67f
8:48 5 6 mph 1015.9mb 68f
8:42 5 6 mph 1015.9mb 68f
8:36 5 6 mph 1016mb 68f
8:30 6 7 mph 1016mb 68f
8:24 6 7 mph 1016mb 68f
8:18 6 7 mph 1015.9mb 68f
8:12 5 6 mph 1015.8mb 69f
8:06 6 6 mph 1015.8mb 69f
8:00 6 6 mph 1015.7mb 69f
7:54 7 7 mph 1015.6mb 69f
7:48 7 8 mph 1015.5mb 69f
7:42 6 8 mph 1015.5mb 70f
7:36 6 6 mph 1015.4mb 70f
7:30 6 7 mph 1015.4mb 70f
7:24 7 8 mph 1015.4mb 70f
7:18 7 9 mph 1015.2mb 70f
7:12 6 7 mph 1015.1mb 71f
7:06 6 7 mph 1015.1mb 71f
7:00 8 9 mph 1015.1mb 71f
6:54 8 10 mph 1015.1mb 72f
6:48 8 11 mph 1015.1mb 72f
6:42 9 11 mph 1015.1mb 73f
6:36 8 9 mph 1015mb 73f
6:30 10 11 mph 1015mb 73f
6:24 9 11 mph 1014.9mb 74f
6:18 10 13 mph 1014.9mb 74f
6:12 8 10 mph 1014.8mb 74f
6:06 10 11 mph 1014.8mb 74f
6:00 11 14 mph 1014.8mb 75f
5:54 10 13 mph 1014.9mb 75f
5:48 10 13 mph 1014.9mb 75f
5:42 10 13 mph 1014.8mb 76f
5:36 11 14 mph 1014.8mb 76f
5:30 11 13 mph 1014.8mb 76f
5:24 10 13 mph 1014.7mb 76f
5:18 10 13 mph 1014.6mb 76f
5:12 11 14 mph 1014.6mb 76f
5:06 14 16 mph 1014.6mb 76f
5:00 15 18 mph 1014.5mb 76f
4:54 15 17 mph 1014.5mb 76f
4:48 14 17 mph 1014.6mb 76f
4:42 14 16 mph 1014.5mb 77f
4:36 13 14 mph 1014.5mb 77f
4:30 14 17 mph 1014.6mb 76f
4:24 14 16 mph 1014.6mb 76f
4:18 13 15 mph 1014.5mb 76f
4:12 14 16 mph 1014.6mb 76f
4:06 14 16 mph 1014.8mb 76f
4:00 13 15 mph 1014.8mb 76f
3:54 14 17 mph 1014.7mb 76f
3:48 14 16 mph 1014.7mb 76f
3:42 14 16 mph 1014.7mb 76f
3:36 14 17 mph 1014.8mb 76f
3:30 14 17 mph 1015mb 76f
3:24 13 15 mph 1015mb 75f
3:18 13 17 mph 1014.9mb 76f
3:12 13 15 mph 1014.9mb 76f
3:06 15 20 mph 1014.9mb 75f
3:00 15 21 mph 1014.9mb 75f
2:54 14 16 mph 1014.9mb 75f
2:48 15 16 mph 1014.9mb 74f
2:42 15 18 mph 1014.8mb 74f
2:36 14 17 mph 1014.9mb 74f
2:30 15 17 mph 1014.9mb 74f
2:24 13 15 mph 1014.9mb 74f
2:18 13 16 mph 1015mb 73f
2:12 11 14 mph 1015.2mb 73f
2:06 11 14 mph 1015.3mb 73f
2:00 13 15 mph 1015.2mb 72f
1:54 14 16 mph 1015mb 72f
1:48 11 13 mph 1015.1mb 72f
1:42 10 13 mph 1015.2mb 71f
1:36 11 15 mph 1015.1mb 71f
1:30 10 13 mph 1015.2mb 70f
1:24 11 13 mph 1015.1mb 70f
1:18 11 14 mph 1015.1mb 69f
1:12 11 14 mph 1015.1mb 69f
1:06 13 14 mph 1015.1mb 69f
1:00 11 14 mph 1015.2mb 69f
12:54 13 15 mph 1015.2mb 69f
12:48 11 14 mph 1015.3mb 69f
12:42 11 14 mph 1015.3mb 69f
12:36 13 15 mph 1015.3mb 68f
12:30 11 14 mph 1015.3mb 69f
12:24 15 17 mph 1015.2mb 68f
12:18 13 15 mph 1015.3mb 68f
12:12 14 18 mph 1015.3mb 68f
12:06 16 24 mph 1015.3mb 68f
12:00 15 20 mph 1015.3mb 68f
11:54 16 22 mph 1015.3mb 68f
11:48 13 15 mph 1015.4mb 68f
11:42 13 17 mph 1015.5mb 67f
11:36 14 17 mph 1015.5mb 67f
11:30 15 20 mph 1015.5mb 67f
11:24 14 21 mph 1015.5mb 67f
11:18 11 15 mph 1015.4mb 66f
11:12 11 14 mph 1015.4mb 65f
11:06 14 17 mph 1015.5mb 65f
11:00 11 16 mph 1015.6mb 64f
10:54 11 15 mph 1015.6mb 64f
10:48 14 20 mph 1015.5mb 64f
10:42 13 20 mph 1015.5mb 64f
10:36 16 22 mph 1015.5mb 64f
10:30 18 23 mph 1015.5mb 64f
10:24 15 20 mph 1015.3mb 64f
10:18 15 18 mph 1015.4mb 64f
10:12 16 22 mph 1015.3mb 64f
10:06 17 22 mph 1015.2mb 64f
10:00 14 18 mph 1015.1mb 64f
9:54 13 17 mph 1015mb 64f
9:48 11 16 mph 1015mb 64f
9:42 13 15 mph 1015mb 64f
9:36 11 16 mph 1014.9mb 64f
9:30 14 18 mph 1014.7mb 64f
9:24 14 17 mph 1014.8mb 64f
9:18 11 15 mph 1014.8mb 64f
9:12 15 18 mph 1014.7mb 64f
9:06 14 17 mph 1014.7mb 64f
9:00 15 21 mph 1014.6mb 64f
8:54 15 21 mph 1014.5mb 64f
8:48 13 17 mph 1014.4mb 63f
8:42 13 15 mph 1014.3mb 63f
8:36 11 17 mph 1014.3mb 63f
8:30 13 17 mph 1014.4mb 63f
8:24 16 22 mph 1014.2mb 63f
8:18 15 21 mph 1014.1mb 63f
8:12 15 21 mph 1014.1mb 63f
8:06 15 21 mph 1014.1mb 63f
8:00 16 21 mph 1014mb 63f
7:54 15 20 mph 1014mb 63f
7:48 15 21 mph 1014mb 63f
7:42 15 18 mph 1013.9mb 63f
7:36 16 21 mph 1013.8mb 63f
7:30 16 22 mph 1013.7mb 63f
7:24 15 22 mph 1013.6mb 62f
7:18 16 22 mph 1013.5mb 62f
7:12 16 22 mph 1013.6mb 62f
7:06 16 22 mph 1013.5mb 62f
7:00 15 21 mph 1013.6mb 62f
6:54 17 22 mph 1013.6mb 62f
6:48 15 18 mph 1013.6mb 62f
6:42 17 23 mph 1013.8mb 62f
6:36 15 23 mph 1013.9mb 62f
6:30 21 29 mph 1013.9mb 62f
6:24 17 28 mph 1013.9mb 62f
6:18 20 28 mph 1013.7mb 62f
6:12 18 24 mph 1013.6mb 62f
6:06 18 26 mph 1013.5mb 62f
6:00 15 26 mph 1013.5mb 63f
5:54 17 24 mph 1013.4mb 62f
5:48 16 23 mph 1013.2mb 62f
5:42 20 28 mph 1013.2mb 62f
5:36 21 29 mph 1013.1mb 62f
5:30 22 31 mph 1013.1mb 62f
5:24 18 24 mph 1013.2mb 62f
5:18 17 26 mph 1013.1mb 62f
5:12 18 24 mph 1013.2mb 62f
5:06 20 23 mph 1013.1mb 62f
5:00 21 28 mph 1013mb 62f
4:54 23 31 mph 1013mb 62f
4:48 17 22 mph 1013.2mb 62f
4:42 23 30 mph 1013.1mb 62f
4:36 21 28 mph 1013.2mb 62f
4:30 21 30 mph 1013.1mb 62f
4:24 23 33 mph 1013.1mb 62f
4:18 21 26 mph 1013mb 62f
4:12 17 23 mph 1013.1mb 62f
4:06 20 28 mph 1012.9mb 62f
4:00 21 28 mph 1012.9mb 63f
3:54 18 25 mph 1013.1mb 63f
3:48 14 17 mph 1013.1mb 63f
3:42 17 23 mph 1013mb 63f
3:36 20 29 mph 1012.9mb 63f
3:30 21 29 mph 1012.9mb 63f
3:24 22 31 mph 1012.7mb 63f
3:18 21 26 mph 1012.7mb 63f
3:12 18 26 mph 1012.8mb 63f
3:06 20 26 mph 1012.7mb 63f
3:00 17 24 mph 1012.7mb 63f
2:54 17 24 mph 1012.6mb 63f
2:48 21 28 mph 1012.5mb -
2:42 20 25 mph 1012.5mb -
2:36 20 26 mph 1012.6mb -
2:30 20 24 mph 1012.7mb 63f
2:24 18 28 mph 1012.7mb 63f
2:18 20 28 mph 1012.7mb 63f
2:12 18 23 mph 1012.7mb 63f
2:06 21 28 mph 1012.8mb 63f
2:00 20 26 mph 1013mb 63f
1:54 18 23 mph 1012.9mb 63f
1:48 20 24 mph 1012.9mb 63f
1:42 21 29 mph 1012.9mb 63f
1:36 20 25 mph 1012.7mb 62f
1:30 21 29 mph 1012.8mb 62f
1:24 20 26 mph 1012.9mb 62f
1:18 22 29 mph 1012.8mb 63f
1:12 18 25 mph 1012.8mb 63f
1:06 21 29 mph 1012.8mb 63f
1:00 17 26 mph 1012.9mb 63f
12:54 21 28 mph 1012.7mb 63f
12:48 22 30 mph 1012.7mb 63f
12:42 21 26 mph 1012.7mb 63f
12:36 17 23 mph 1012.8mb 63f
12:30 21 28 mph 1012.7mb 63f
12:24 21 30 mph 1012.6mb 63f
12:18 21 25 mph 1012.5mb 62f
12:12 17 22 mph 1012.6mb 63f
12:06 20 24 mph 1012.7mb 63f
12:00 20 28 mph 1012.9mb 63f
Fr 09/22 11:54 18 25 mph 1013mb 63f
11:48 18 28 mph 1012.9mb 63f
11:42 20 26 mph 1012.8mb 63f
11:36 20 25 mph 1012.8mb 63f
11:30 18 28 mph 1012.8mb 63f
11:24 18 23 mph 1012.8mb 63f
11:18 18 24 mph 1012.8mb 63f
11:12 18 25 mph 1012.9mb 63f
11:06 18 24 mph 1012.9mb 63f
11:00 20 28 mph 1012.9mb 63f
10:54 21 25 mph 1012.7mb 62f
10:48 21 28 mph 1012.6mb 63f
10:42 21 29 mph 1012.7mb 62f
10:36 20 31 mph 1012.8mb 62f
10:30 22 30 mph 1012.7mb 62f
10:24 20 25 mph 1013mb 62f
10:18 18 25 mph 1013mb 62f
10:12 21 29 mph 1012.9mb 62f
10:06 18 26 mph 1012.8mb 62f
10:00 16 22 mph 1012.9mb 62f
9:54 17 24 mph 1013mb 62f
9:48 17 26 mph 1012.9mb 62f
9:42 17 28 mph 1012.8mb 62f
9:36 20 23 mph 1012.8mb 62f
9:30 20 29 mph 1012.9mb 62f
9:24 20 25 mph 1012.9mb 62f
9:18 21 25 mph 1012.9mb 62f
9:12 18 23 mph 1012.9mb 62f
9:06 20 28 mph 1012.9mb 62f
9:00 21 26 mph 1012.8mb 62f
8:54 23 29 mph 1012.8mb 62f
8:48 21 28 mph 1012.8mb 62f
8:42 23 31 mph 1012.7mb 61f
8:36 22 32 mph 1012.8mb 61f
8:30 18 28 mph 1012.8mb 61f
8:24 21 30 mph 1012.7mb 61f
8:18 20 28 mph 1012.7mb 61f
8:12 24 34 mph 1012.5mb 61f
8:06 20 25 mph 1012.6mb 61f
8:00 23 30 mph 1012.5mb 61f
7:54 22 29 mph 1012.5mb 61f
7:48 24 32 mph 1012.4mb 61f
7:42 24 32 mph 1012.4mb 61f
7:36 24 36 mph 1012.4mb 61f
7:30 22 33 mph 1012.3mb 61f
7:24 21 26 mph 1012.3mb 61f
7:18 23 32 mph 1012.3mb 61f
7:12 22 28 mph 1012.3mb 61f
7:06 23 31 mph 1012.2mb 61f
7:00 23 32 mph 1012.1mb 61f
6:54 25 34 mph 1012.1mb 61f
6:48 22 29 mph 1012.2mb 61f
6:42 23 30 mph 1012.2mb 61f
6:36 22 32 mph 1012.2mb 61f
6:30 25 38 mph 1012.1mb 61f
6:24 24 30 mph 1012.2mb 61f
6:18 24 38 mph 1012.2mb 61f
6:12 23 33 mph 1012.3mb 62f
6:06 30 37 mph 1012.1mb 61f
6:00 24 33 mph 1012.2mb 61f
5:54 24 34 mph 1012.2mb 61f
5:48 25 36 mph 1012.1mb 61f
5:42 25 38 mph 1012.1mb 61f
5:36 23 34 mph 1012.3mb 62f
5:30 28 38 mph 1012.1mb 61f
5:24 24 36 mph 1012.2mb 61f
5:18 22 26 mph 1012.2mb 62f
5:12 24 32 mph 1012.2mb 61f
5:06 24 30 mph 1012.2mb 61f
5:00 26 36 mph 1012.1mb 61f
4:54 25 33 mph 1012.1mb 61f
4:48 23 31 mph 1012.2mb 61f
4:42 29 37 mph 1012.1mb 61f
4:36 26 36 mph 1012.1mb 61f
4:30 28 37 mph 1012.1mb 61f
4:24 25 38 mph 1012.1mb 61f
4:18 25 38 mph 1012.1mb 61f
4:12 22 32 mph 1012.2mb 61f
4:06 22 31 mph 1012.1mb 61f
4:00 22 31 mph 1012.1mb 61f
3:54 23 33 mph 1012.1mb 61f
3:48 24 31 mph 1012.1mb 61f
3:42 22 31 mph 1012.1mb 61f
3:36 26 37 mph 1012mb 61f
3:30 23 30 mph 1012.3mb 61f
3:24 23 32 mph 1012.4mb 61f
3:18 21 30 mph 1012.3mb 61f
3:12 23 30 mph 1012.2mb 61f
3:06 21 31 mph 1012.2mb 61f
3:00 24 32 mph 1012.2mb 61f
2:54 22 28 mph 1012.3mb 61f
2:48 21 30 mph 1012.3mb 61f
2:42 22 30 mph 1012.3mb 60f
2:36 23 36 mph 1012.3mb 61f
2:30 18 24 mph 1012.4mb 61f
2:24 23 33 mph 1012.4mb 60f
2:18 22 29 mph 1012.4mb 60f
2:12 25 34 mph 1012.2mb 60f
2:06 23 31 mph 1012.5mb 60f
2:00 23 32 mph 1012.6mb 60f
1:54 22 32 mph 1012.6mb 60f
1:48 26 37 mph 1012.7mb 60f
1:42 24 33 mph 1012.8mb 60f
1:36 30 41 mph 1012.8mb 60f
1:30 26 37 mph 1012.8mb 60f
1:24 25 34 mph 1012.8mb 60f
1:18 24 32 mph 1012.8mb 60f
1:12 26 34 mph 1013mb 60f
1:06 25 36 mph 1013mb 60f
1:00 23 30 mph 1013.1mb 60f
12:54 22 38 mph 1013.2mb 60f
12:48 25 38 mph 1013mb 60f
12:42 22 31 mph 1013.2mb 60f
12:36 25 38 mph 1013.1mb 60f
12:30 23 37 mph 1013.1mb 60f
12:24 20 28 mph 1013.1mb 60f
12:18 23 36 mph 1013.1mb 60f
12:12 23 33 mph 1013mb 60f
12:06 24 32 mph 1013mb 60f
12:00 24 34 mph 1012.9mb 60f
11:54 21 26 mph 1013mb 60f
11:48 24 33 mph 1012.9mb 60f
11:42 22 31 mph 1013.1mb 60f
11:36 23 34 mph 1013mb 60f
11:30 25 33 mph 1013mb 60f
11:24 21 29 mph 1013.1mb 60f
11:18 22 29 mph 1013.1mb 60f
11:12 22 33 mph 1013.2mb 60f
11:06 24 34 mph 1013mb 60f
11:00 24 32 mph 1013.1mb 60f
10:54 24 32 mph 1013.2mb 60f
10:48 22 31 mph 1013.1mb 60f
10:42 25 33 mph 1013mb 59f
10:36 23 31 mph 1013.1mb 60f
10:30 23 32 mph 1013.1mb 59f
10:24 22 29 mph 1013.1mb 60f
10:18 22 31 mph 1013mb 60f
10:12 24 33 mph 1012.9mb 60f
10:06 24 43 mph 1012.9mb 60f
10:00 22 31 mph 1013mb 60f
9:54 24 37 mph 1013mb 60f
9:48 21 28 mph 1013.1mb 60f
9:42 21 32 mph 1013.1mb 60f
9:36 28 40 mph 1012.8mb 60f
9:30 24 32 mph 1012.9mb 60f
9:24 23 34 mph 1013mb 60f
9:18 21 28 mph 1013.1mb 60f
9:12 23 31 mph 1012.8mb 60f
9:06 26 43 mph 1012.7mb 60f
9:00 23 34 mph 1012.5mb 60f
8:54 24 31 mph 1012.4mb 60f
8:48 22 31 mph 1012.5mb 60f
8:42 25 37 mph 1012.5mb 60f
8:36 24 33 mph 1012.6mb 60f
8:30 26 36 mph 1012.4mb 60f
8:24 29 44 mph 1012.3mb 60f
8:18 23 33 mph 1012.5mb 60f
8:12 29 38 mph 1012.4mb 60f
8:06 26 36 mph 1012.4mb 60f
8:00 28 40 mph 1012.3mb 60f
7:54 23 36 mph 1012.5mb 60f
7:48 25 34 mph 1012.3mb 60f
7:42 24 32 mph 1012.4mb 60f
7:36 23 31 mph 1012.3mb 60f
7:30 23 33 mph 1012.4mb 60f
7:24 26 36 mph 1012.4mb 60f
7:18 25 34 mph 1012.5mb 60f
7:12 23 31 mph 1012.4mb 60f
7:06 25 34 mph 1012.3mb 60f
7:00 25 34 mph 1012.4mb 60f
6:54 24 33 mph 1012.4mb 60f
6:48 24 36 mph 1012.4mb 60f
6:42 25 36 mph 1012.4mb 60f
6:36 25 36 mph 1012.4mb 60f
6:30 25 34 mph 1012.4mb 60f
6:24 28 39 mph 1012.3mb 60f
6:18 24 32 mph 1012.3mb 60f
6:12 24 32 mph 1012.3mb 60f
6:06 25 40 mph 1012.2mb 60f
6:00 25 36 mph 1012.1mb 60f
5:54 25 34 mph 1012mb 60f
5:48 25 31 mph 1012.1mb 60f
5:42 25 38 mph 1011.9mb 60f
5:36 24 32 mph 1012.1mb 60f
5:30 25 36 mph 1012.1mb 60f
5:24 26 37 mph 1012.1mb 60f
5:18 28 37 mph 1012mb 60f
5:12 22 34 mph 1012.1mb 60f
5:06 25 39 mph 1012mb 60f
5:00 26 32 mph 1012mb 60f
4:54 28 36 mph 1012.1mb 61f
4:48 24 34 mph 1012.2mb 61f
4:42 25 34 mph 1012.1mb 61f
4:36 28 36 mph 1012.1mb 60f
4:30 29 39 mph 1012mb 61f
4:24 29 38 mph 1011.9mb 61f
4:18 30 40 mph 1011.9mb 61f
4:12 24 32 mph 1012.1mb 61f
4:06 26 37 mph 1011.9mb 61f
4:00 29 39 mph 1011.9mb 61f
3:54 28 38 mph 1011.8mb 61f
3:48 21 33 mph 1012.2mb 61f